Date,TemperatureHighF,TemperatureAvgF,TemperatureLowF,DewpointHighF,DewpointAvgF,DewpointLowF,HumidityHigh,HumidityAvg,HumidityLow,PressureMaxIn,PressureMinIn,WindSpeedMaxMPH,WindSpeedAvgMPH,GustSpeedMaxMPH,PrecipitationSumIn
2013-1-1,51,48,44,51,43,25,100,85,46,0.00,40.00,9,3,16,0.87
2013-1-2,50,46,41,49,43,39,100,88,67,0.00,40.00,8,4,12,0.50
2013-1-3,49,42,30,42,36,26,99,80,54,0.00,40.00,8,3,12,0.00
2013-1-4,50,36,24,30,21,13,94,59,25,0.00,40.00,14,5,20,0.00
2013-1-5,47,37,23,37,22,18,95,59,32,0.00,40.00,6,3,12,0.03
2013-1-6,53,43,38,39,34,29,95,73,42,0.00,40.00,13,7,21,0.04
2013-1-7,53,41,28,30,27,25,90,60,34,0.00,40.00,9,4,15,0.00
2013-1-8,50,41,28,38,32,25,92,71,53,0.00,40.00,6,3,11,0.00
2013-1-9,63,54,46,56,49,38,99,84,68,0.00,40.00,3,1,7,0.01
2013-1-10,64,57,47,54,51,47,100,83,66,0.00,40.00,8,4,16,0.01
2013-1-11,59,56,55,59,56,54,100,100,95,0.00,40.00,7,4,14,1.01
2013-1-12,69,62,56,65,60,56,100,94,71,0.00,40.00,8,3,13,0.39
2013-1-13,68,60,54,61,58,54,100,95,79,0.00,40.00,8,3,13,0.01
2013-1-14,64,62,60,64,62,60,100,99,92,0.00,40.00,9,4,16,1.15
2013-1-15,61,58,52,61,58,52,100,100,100,0.00,40.00,7,3,12,1.65
2013-1-16,58,53,50,57,53,50,100,100,98,0.00,40.00,5,3,11,0.98
2013-1-17,54,49,37,54,49,37,100,99,94,0.00,40.00,10,4,32,1.92
2013-1-18,54,39,29,37,29,22,100,74,30,0.00,40.00,5,2,10,0.16
2013-1-19,53,37,25,36,27,21,100,73,32,0.00,40.00,7,3,12,0.00
2013-1-20,61,46,29,34,29,19,96,54,29,0.00,40.00,15,6,23,0.00
2013-1-21,56,41,27,30,24,11,97,57,26,0.00,40.00,17,6,29,0.00
2013-1-22,43,34,28,12,8,4,47,34,23,0.00,40.00,13,7,23,0.00
2013-1-23,50,38,29,27,17,4,60,43,31,0.00,40.00,13,8,25,0.00
2013-1-24,50,44,33,37,21,5,71,43,21,0.00,40.00,18,9,31,0.00
2013-1-25,35,28,25,35,16,3,99,65,35,0.00,40.00,8,4,17,0.04
2013-1-26,58,43,33,38,30,19,100,65,23,0.00,40.00,9,5,13,0.08
2013-1-27,47,39,31,32,30,27,89,71,54,0.00,40.00,8,4,16,0.02
2013-1-28,51,44,39,46,38,29,100,78,62,0.00,40.00,6,3,9,0.00
2013-1-29,66,54,38,60,51,38,100,92,72,0.00,40.00,5,2,9,0.08
2013-1-30,64,58,45,63,57,42,100,95,87,0.00,40.00,14,9,30,2.06
2013-1-31,45,40,33,43,21,17,91,48,33,0.00,40.00,21,12,34,0.27
2013-2-1,41,35,26,28,11,0,69,38,20,0.00,40.00,15,9,31,0.00
2013-2-2,43,30,19,34,17,4,100,65,20,0.00,40.00,10,4,16,0.05
2013-2-3,49,40,33,37,28,23,99,67,42,0.00,40.00,19,10,29,0.20
2013-2-4,49,36,26,29,24,20,86,62,32,0.00,40.00,6,3,11,0.07
2013-2-5,61,44,32,45,36,26,99,74,52,0.00,40.00,11,4,19,0.00
2013-2-6,65,49,35,43,31,20,100,61,20,0.00,40.00,13,4,20,0.00
2013-2-7,50,46,36,45,34,26,98,67,41,0.00,40.00,8,4,15,0.23
2013-2-8,57,47,36,48,40,28,100,80,47,0.00,40.00,11,5,20,0.02
2013-2-9,60,43,26,33,25,18,94,58,20,0.00,40.00,6,3,11,0.00
2013-2-10,54,46,34,46,33,24,100,65,35,0.00,40.00,11,6,19,0.95
2013-2-11,56,50,46,54,48,39,100,93,73,0.00,40.00,9,4,16,1.27
2013-2-12,59,48,43,45,36,21,98,68,23,0.00,40.00,6,3,12,0.22
2013-2-13,49,43,36,45,40,31,99,89,72,0.00,40.00,13,5,22,0.23
2013-2-14,55,42,28,34,29,25,97,65,35,0.00,40.00,9,4,17,0.01
2013-2-15,61,44,28,39,31,27,98,68,31,0.00,40.00,11,5,24,0.00
2013-2-16,43,36,28,33,21,8,83,57,34,0.00,40.00,18,8,26,0.00
2013-2-17,41,32,24,14,6,2,66,34,21,0.00,40.00,15,8,28,0.00
2013-2-18,55,37,20,25,19,13,85,54,28,0.00,40.00,9,4,17,0.00
2013-2-19,56,42,34,43,27,12,100,61,27,0.00,40.00,15,7,29,0.23
2013-2-20,55,42,28,12,7,-1,44,25,14,0.00,40.00,11,6,17,0.06
2013-2-21,60,42,26,38,19,6,87,45,19,0.00,40.00,6,4,11,0.17
2013-2-22,42,39,36,40,38,35,100,96,87,0.00,40.00,9,6,17,0.94
2013-2-23,48,44,39,47,43,39,100,99,93,0.00,40.00,6,3,10,0.80
2013-2-24,64,51,40,47,32,19,100,55,21,0.00,40.00,12,6,20,0.04
2013-2-25,50,42,33,36,27,22,96,58,37,0.00,40.00,11,6,21,0.04
2013-2-26,43,39,35,43,37,33,99,95,70,0.00,40.00,13,8,30,1.53
2013-2-27,56,46,39,36,32,28,82,61,39,0.00,40.00,16,11,24,0.01
2013-2-28,44,38,32,36,26,21,74,60,54,0.00,40.00,15,10,28,0.00
2013-3-1,47,37,27,29,26,22,82,63,49,0.00,40.00,15,7,23,0.00
2013-3-2,44,37,31,31,25,18,89,64,42,0.00,40.00,11,7,22,0.00
2013-3-3,41,33,26,18,14,11,58,47,29,0.00,40.00,17,7,25,0.00
2013-3-4,58,40,23,30,19,13,68,46,25,0.00,40.00,9,4,18,0.00
2013-3-5,53,44,32,50,37,24,96,78,57,0.00,40.00,19,5,35,0.66
2013-3-6,38,34,29,27,22,16,84,61,49,0.00,40.00,19,10,32,0.41
2013-3-7,61,41,25,31,26,22,93,60,24,0.00,40.00,9,4,19,0.00
2013-3-8,64,43,26,30,25,23,93,56,22,0.00,40.00,8,3,11,0.00
2013-3-9,62,45,27,34,28,25,94,57,29,0.00,40.00,9,4,14,0.00
2013-3-10,64,53,40,36,34,32,83,50,33,0.00,40.00,9,5,17,0.00
2013-3-11,58,53,50,55,48,35,100,83,48,0.00,40.00,9,6,17,1.42
2013-3-12,62,51,40,53,38,26,100,67,29,0.00,40.00,13,7,20,1.56
2013-3-13,50,43,35,29,23,15,68,46,30,0.00,40.00,17,8,33,0.01
2013-3-14,54,39,27,19,14,7,60,39,19,0.00,40.00,13,6,19,0.00
2013-3-15,71,52,31,40,32,11,86,51,27,0.00,40.00,16,7,29,0.00
2013-3-16,74,64,55,46,41,37,57,44,32,0.00,40.00,16,10,27,0.00
2013-3-17,71,62,53,51,45,39,70,53,42,0.00,40.00,11,7,21,0.00
2013-3-18,59,46,43,48,44,42,100,92,61,0.00,40.00,8,5,15,0.55
2013-3-19,61,51,42,47,32,14,100,56,23,0.00,40.00,15,6,26,0.39
2013-3-20,57,45,36,29,16,8,57,33,17,0.00,40.00,11,5,24,0.00
2013-3-21,45,36,28,31,13,7,80,40,23,0.00,40.00,17,8,26,0.00
2013-3-22,49,38,27,26,20,13,70,48,29,0.00,40.00,6,3,13,0.00
2013-3-23,52,45,40,48,41,26,100,85,48,0.00,40.00,7,3,12,0.44
2013-3-24,48,46,44,46,45,43,100,96,88,0.00,40.00,8,5,23,1.15
2013-3-25,44,36,32,44,23,19,100,58,49,0.00,40.00,18,14,35,0.01
2013-3-26,43,35,29,25,21,20,75,57,43,0.00,40.00,12,8,22,0.00
2013-3-27,53,39,28,25,21,18,72,51,26,0.00,40.00,13,6,24,0.00
2013-3-28,61,54,40,23,21,16,47,28,19,0.00,40.00,9,6,24,0.00
2013-3-29,61,45,30,35,27,19,83,51,28,0.00,40.00,6,3,15,0.00
2013-3-30,67,55,44,53,40,34,97,59,37,0.00,40.00,9,4,17,0.07
2013-3-31,65,58,53,57,52,-100,100,88,58,0.00,40.00,10,6,22,0.95
2013-4-1,68,59,49,55,45,36,100,66,34,0.00,40.00,14,6,25,0.03
2013-4-2,63,54,42,37,26,13,76,38,15,0.00,40.00,16,7,24,0.01
2013-4-3,58,52,47,29,25,20,48,36,28,0.00,40.00,9,5,22,0.00
2013-4-4,52,43,37,40,35,28,99,77,40,0.00,40.00,9,5,22,0.32
2013-4-5,66,51,39,47,41,31,100,74,38,0.00,40.00,6,4,11,0.05
2013-4-6,68,54,34,44,34,30,94,51,28,0.00,40.00,9,4,18,0.00
2013-4-7,70,55,36,48,41,34,93,63,39,0.00,40.00,9,4,19,0.00
2013-4-8,75,62,49,55,50,43,88,67,43,0.00,40.00,9,4,17,0.00
2013-4-9,79,64,49,60,52,48,98,71,43,0.00,40.00,8,4,15,0.00
2013-4-10,82,68,50,59,54,49,98,65,41,0.00,40.00,9,4,16,0.00
2013-4-11,76,65,55,67,58,53,97,80,55,0.00,40.00,11,5,40,0.24
2013-4-12,69,64,56,62,50,35,100,66,31,0.00,40.00,12,8,40,0.91
2013-4-13,76,61,43,39,35,30,81,41,20,0.00,40.00,10,5,20,0.01
2013-4-14,64,56,45,52,42,32,98,62,34,0.00,40.00,7,4,14,0.14
2013-4-15,71,61,53,60,55,52,100,83,57,0.00,40.00,8,4,14,0.18
2013-4-16,77,66,59,63,59,56,99,79,54,0.00,40.00,7,4,13,0.01
2013-4-17,81,68,59,65,61,54,99,81,50,0.00,40.00,10,3,18,1.21
2013-4-18,78,67,60,63,60,57,100,82,54,0.00,40.00,10,5,19,1.21
2013-4-19,68,60,46,65,56,36,98,87,67,0.00,40.00,16,8,33,0.80
2013-4-20,67,52,40,39,29,22,81,44,23,0.00,40.00,10,5,17,0.04
2013-4-21,64,52,36,37,34,28,94,54,32,0.00,40.00,13,6,21,0.00
2013-4-22,66,55,46,41,38,37,72,55,34,0.00,40.00,9,6,21,0.00
2013-4-23,71,56,36,48,40,34,91,59,39,0.00,40.00,7,3,13,0.00
2013-4-24,72,57,46,60,52,45,99,85,53,0.00,40.00,14,5,24,0.07
2013-4-25,74,59,40,60,36,15,99,52,11,0.00,40.00,11,6,19,0.07
2013-4-26,70,56,36,46,35,22,85,48,26,0.00,40.00,9,4,18,0.00
2013-4-27,60,54,52,54,51,43,100,90,58,0.00,40.00,5,3,12,0.60
2013-4-28,54,52,50,54,51,-100,100,100,98,0.00,40.00,9,4,17,3.46
2013-4-29,72,59,53,59,55,52,100,87,49,0.00,40.00,8,3,13,0.67
2013-4-30,76,68,48,60,55,48,100,65,45,0.00,40.00,7,4,14,0.00
2013-5-1,67,62,56,59,54,52,95,76,60,0.00,40.00,10,7,20,0.00
2013-5-2,63,59,57,56,55,53,94,86,77,0.00,40.00,11,7,20,0.00
2013-5-3,60,56,54,56,54,51,99,92,73,0.00,40.00,12,8,24,0.10
2013-5-4,57,52,48,53,49,44,99,92,79,0.00,40.00,11,9,23,0.98
2013-5-5,54,52,51,52,51,50,99,97,92,0.00,40.00,13,8,27,2.21
2013-5-6,57,50,43,52,47,43,100,91,70,0.00,40.00,7,3,16,0.45
2013-5-7,68,57,46,52,50,46,100,79,50,0.00,40.00,11,4,17,0.01
2013-5-8,73,60,47,57,52,47,100,78,49,0.00,40.00,11,4,20,0.00
2013-5-9,80,64,50,62,55,50,100,76,38,0.00,40.00,10,3,23,0.00
2013-5-10,76,64,52,62,56,-100,100,78,58,0.00,40.00,10,4,18,0.00
2013-5-11,75,65,58,64,59,52,99,83,61,0.00,40.00,11,5,24,0.01
2013-5-12,67,59,50,58,40,-100,99,58,30,0.00,40.00,16,8,27,0.01
2013-5-13,67,54,37,41,32,27,90,47,24,0.00,40.00,13,5,23,0.00
2013-5-14,76,56,36,52,42,32,96,64,38,0.00,40.00,11,4,19,0.00
2013-5-15,87,71,55,56,53,49,89,58,29,0.00,40.00,12,6,19,0.00
2013-5-16,81,58,56,62,32,-100,96,75,46,0.00,40.00,8,3,17,0.00
2013-5-17,80,65,56,68,48,-100,100,77,43,0.00,40.00,6,2,13,0.00
2013-5-18,72,66,62,67,64,60,100,93,82,0.00,40.00,5,2,9,0.23
2013-5-19,71,66,63,68,66,63,100,97,87,0.00,40.00,6,2,9,0.83
2013-5-20,81,68,58,70,65,58,100,89,62,0.00,40.00,7,2,13,0.02
2013-5-21,85,73,63,71,66,59,100,79,53,0.00,40.00,7,3,14,0.01
2013-5-22,83,71,62,70,64,61,100,81,61,0.00,40.00,7,3,12,0.00
2013-5-23,82,71,63,68,60,51,100,72,40,0.00,40.00,11,6,22,0.34
2013-5-24,76,66,55,53,45,33,83,51,25,0.00,40.00,12,8,20,0.01
2013-5-25,77,62,41,48,40,33,92,50,26,0.00,40.00,10,5,16,0.00
2013-5-26,79,62,45,56,46,37,90,60,35,0.00,40.00,7,3,13,0.00
2013-5-27,82,68,51,62,56,50,98,70,42,0.00,40.00,7,3,14,0.00
2013-5-28,82,70,59,63,61,58,99,74,48,0.00,40.00,8,4,18,0.00
2013-5-29,80,70,57,64,62,57,100,78,52,0.00,40.00,8,4,14,0.00
2013-5-30,81,70,61,65,62,59,97,78,51,0.00,40.00,7,4,14,0.00
2013-5-31,82,72,64,67,64,61,93,76,54,0.00,40.00,9,4,15,0.00
2013-6-1,80,72,64,67,65,63,98,80,58,0.00,40.00,8,4,14,0.00
2013-6-2,77,69,67,73,66,-100,100,95,81,0.00,40.00,6,2,16,1.17
2013-6-3,82,72,63,71,65,60,100,82,48,0.00,40.00,9,3,15,0.08
2013-6-4,85,72,58,70,64,58,100,78,51,0.00,40.00,6,3,12,0.01
2013-6-5,82,72,63,70,66,60,100,83,65,0.00,40.00,11,5,19,0.52
2013-6-6,74,68,63,70,66,63,100,95,80,0.00,40.00,5,3,11,1.21
2013-6-7,83,71,66,71,67,64,100,89,54,0.00,40.00,11,4,29,0.02
2013-6-8,80,71,60,66,64,60,100,81,58,0.00,40.00,8,3,15,0.01
2013-6-9,82,70,64,71,67,64,100,91,66,0.00,40.00,9,4,24,0.11
2013-6-10,77,71,65,70,67,62,100,89,71,0.00,40.00,8,6,27,1.73
2013-6-11,86,77,69,73,68,65,99,78,52,0.00,40.00,11,6,22,0.08
2013-6-12,90,77,64,76,70,64,100,80,53,0.00,40.00,8,4,14,0.01
2013-6-13,88,78,68,72,69,66,97,77,51,0.00,40.00,14,7,27,0.61
2013-6-14,85,72,59,67,61,57,99,72,42,0.00,40.00,7,3,12,0.61
2013-6-15,82,71,56,64,59,55,98,70,47,0.00,40.00,5,3,13,0.00
2013-6-16,84,72,58,69,63,58,100,76,48,0.00,40.00,7,3,12,0.00
2013-6-17,83,72,67,71,68,66,100,87,61,0.00,40.00,10,4,18,0.53
2013-6-18,81,73,68,73,69,66,100,87,62,0.00,40.00,14,6,23,0.16
2013-6-19,80,72,66,68,66,62,99,83,63,0.00,40.00,7,3,12,0.01
2013-6-20,80,70,61,67,65,61,100,86,61,0.00,40.00,10,4,15,0.01
2013-6-22,83,78,66,64,62,58,90,59,49,0.00,40.00,5,3,12,0.00
2013-6-23,84,72,59,69,65,59,99,79,60,0.00,40.00,7,3,14,0.00
2013-6-24,84,76,69,72,69,67,98,80,59,0.00,40.00,8,4,15,0.00
2013-6-25,82,73,65,74,69,65,100,86,63,0.00,40.00,6,2,12,0.18
2013-6-26,83,74,65,73,69,65,100,85,63,0.00,40.00,7,3,15,0.07
2013-6-27,85,77,70,74,71,69,99,83,63,0.00,40.00,14,6,21,0.00
2013-6-28,90,77,68,74,69,64,98,78,43,0.00,40.00,9,5,17,0.00
2013-6-29,85,75,65,74,65,61,99,76,44,0.00,40.00,8,3,14,0.12
2013-6-30,84,72,60,68,64,59,99,79,46,0.00,40.00,6,3,13,0.02
2013-7-1,81,72,67,70,68,66,99,88,65,0.00,40.00,8,4,13,0.09
2013-7-2,82,74,67,70,68,65,100,83,58,0.00,40.00,8,5,14,0.27
2013-7-3,76,70,65,73,68,64,100,96,87,0.00,40.00,7,4,16,1.35
2013-7-4,77,68,65,74,68,65,100,97,86,0.00,40.00,10,5,18,1.75
2013-7-5,81,72,68,71,69,64,100,91,64,0.00,40.00,10,4,24,0.86
2013-7-6,82,72,67,76,69,66,100,93,67,0.00,40.00,7,4,16,1.56
2013-7-7,81,74,69,72,70,69,100,89,68,0.00,40.00,7,3,12,0.47
2013-7-8,86,75,68,76,70,68,100,87,56,0.00,40.00,6,3,13,0.25
2013-7-9,88,74,70,73,71,69,100,91,62,0.00,40.00,6,3,11,0.58
2013-7-10,87,74,69,77,67,-100,100,87,60,0.00,40.00,7,3,14,0.58
2013-7-11,80,74,70,74,72,70,100,94,79,0.00,40.00,5,2,9,0.01
2013-7-12,85,72,66,72,70,66,100,93,63,0.00,40.00,6,3,11,0.01
2013-7-13,76,70,65,69,67,64,100,89,76,0.00,40.00,8,5,18,0.00
2013-7-14,75,72,69,73,70,68,97,94,89,0.00,40.00,12,6,23,0.01
2013-7-15,83,73,68,72,70,67,100,89,64,0.00,40.00,9,5,20,1.31
2013-7-16,87,82,72,71,70,69,96,69,57,0.00,40.00,7,4,12,0.04
2013-7-17,90,76,67,76,69,61,100,83,53,0.00,40.00,6,2,12,0.28
2013-7-18,87,77,66,73,70,66,100,80,58,0.00,40.00,6,3,11,0.34
2013-7-19,87,74,67,73,70,67,100,88,59,0.00,40.00,6,2,12,0.02
2013-7-20,86,72,67,76,68,-100,100,91,70,0.00,40.00,7,2,14,0.02
2013-7-21,87,74,68,74,70,65,100,88,61,0.00,40.00,7,3,17,0.16
2013-7-22,84,74,68,73,70,68,100,89,65,0.00,40.00,10,5,19,0.16
2013-7-23,84,75,65,73,69,65,100,84,65,0.00,40.00,11,6,19,0.02
2013-7-24,87,75,67,71,68,64,97,83,58,0.00,40.00,6,4,13,0.01
2013-7-25,86,74,63,70,67,63,100,82,55,0.00,40.00,7,3,12,0.01
2013-7-26,84,72,63,73,68,63,100,88,65,0.00,40.00,8,3,16,0.01
2013-7-27,81,73,68,72,69,67,100,88,65,0.00,40.00,6,3,13,0.01
2013-7-28,83,71,63,74,67,63,100,89,63,0.00,40.00,6,2,13,0.01
2013-7-29,85,70,62,68,63,56,100,83,40,0.00,40.00,7,2,12,0.01
2013-7-30,86,72,59,71,65,58,99,81,56,0.00,40.00,7,3,10,0.01
2013-7-31,80,74,69,71,70,67,99,87,71,0.00,40.00,7,3,11,0.00
2013-8-1,88,76,67,72,70,67,99,83,51,0.00,40.00,9,4,16,0.00
2013-8-2,87,75,65,71,68,65,99,81,56,0.00,40.00,7,3,12,0.00
2013-8-3,86,75,65,71,67,64,100,79,53,0.00,40.00,9,4,15,0.00
2013-8-4,89,78,69,70,68,63,97,73,49,0.00,40.00,10,4,16,0.01
2013-8-5,85,74,65,73,67,63,97,81,58,0.00,40.00,6,3,11,0.01
2013-8-6,87,77,69,73,70,66,98,82,55,0.00,40.00,7,3,12,0.00
2013-8-7,76,72,70,74,71,69,99,97,90,0.00,40.00,7,2,12,1.77
2013-8-8,82,74,70,78,72,70,100,94,75,0.00,40.00,7,2,12,0.46
2013-8-9,85,76,69,78,73,69,100,91,69,0.00,40.00,8,3,14,0.16
2013-8-10,90,77,69,77,72,68,100,86,54,0.00,40.00,9,3,24,0.01
2013-8-11,87,74,66,75,71,66,100,91,63,0.00,40.00,8,2,18,0.01
2013-8-12,88,75,67,75,71,67,100,89,60,0.00,40.00,8,3,14,0.01
2013-8-13,87,75,70,75,68,-100,100,83,58,0.00,40.00,9,5,17,0.01
2013-8-14,79,72,68,70,68,64,98,86,65,0.00,40.00,8,4,13,0.01
2013-8-15,71,62,63,64,48,-100,90,75,63,0.00,40.00,10,5,21,0.01
2013-8-16,72,63,62,62,54,-100,91,78,65,0.00,40.00,10,5,18,0.01
2013-8-17,66,63,61,63,60,58,98,90,75,0.00,40.00,8,5,15,0.00
2013-8-18,73,66,63,69,63,-100,99,94,80,0.00,40.00,5,3,9,0.01
2013-8-19,73,65,65,70,58,-100,99,94,87,0.00,40.00,6,3,12,0.01
2013-8-20,79,70,65,71,66,-100,100,92,72,0.00,40.00,5,2,10,0.01
2013-8-21,82,72,68,72,70,68,100,94,68,0.00,40.00,5,2,11,0.01
2013-8-22,87,74,68,75,70,66,100,89,56,0.00,40.00,6,2,12,0.00
2013-8-23,90,75,64,74,68,64,100,83,48,0.00,40.00,7,2,17,0.01
2013-8-24,80,71,65,69,66,63,100,86,57,0.00,40.00,10,4,16,0.01
2013-8-25,79,68,57,64,58,-100,99,76,52,0.00,40.00,9,4,16,0.00
2013-8-26,83,70,57,65,62,57,99,79,49,0.00,40.00,6,3,12,0.00
2013-8-27,87,68,59,66,62,59,100,84,43,0.00,40.00,6,2,10,0.00
2013-8-28,90,83,72,71,68,65,90,62,46,0.00,40.00,6,4,10,0.00
2013-8-29,92,78,67,73,69,66,98,77,52,0.00,40.00,6,4,15,0.00
2013-8-30,85,76,70,74,71,69,98,86,63,0.00,40.00,8,4,14,0.00
2013-8-31,89,75,69,76,71,68,99,89,58,0.00,40.00,7,3,15,0.00
2013-9-1,87,75,67,75,68,-100,100,84,59,0.00,40.00,11,4,20,0.00
2013-9-2,84,74,67,72,69,66,98,85,58,0.00,40.00,10,5,15,0.00
2013-9-3,89,76,68,70,68,64,99,78,44,0.00,40.00,9,4,16,0.00
2013-9-4,87,74,63,71,66,63,99,81,53,0.00,40.00,8,3,12,0.00
2013-9-5,89,74,63,71,67,63,100,81,46,0.00,40.00,6,2,10,0.00
2013-9-6,84,71,61,68,64,60,99,81,52,0.00,40.00,10,3,16,0.00
2013-9-7,85,72,60,69,64,60,99,79,50,0.00,40.00,6,2,14,0.00
2013-9-8,90,73,62,71,63,-100,99,77,41,0.00,40.00,5,2,10,0.00
2013-9-9,86,73,64,71,67,64,99,82,52,0.00,40.00,7,3,12,0.00
2013-9-10,86,74,63,71,67,63,99,81,55,0.00,40.00,7,3,12,0.00
2013-9-11,89,74,62,72,66,62,99,79,44,0.00,40.00,6,2,13,0.00
2013-9-12,86,73,65,72,67,65,99,83,56,0.00,40.00,8,3,15,0.00
2013-9-13,83,73,59,70,62,51,97,72,34,0.00,40.00,10,4,20,0.00
2013-9-14,77,63,51,58,54,50,98,76,47,0.00,40.00,9,4,15,0.00
2013-9-15,79,65,57,66,57,-100,98,82,57,0.00,40.00,6,3,12,0.00
2013-9-16,85,71,62,66,61,55,99,77,39,0.00,40.00,8,3,13,0.00
2013-9-17,71,67,64,64,58,53,91,72,56,0.00,40.00,12,6,21,0.00
2013-9-18,64,63,62,56,55,54,76,75,74,0.00,40.00,5,4,8,0.00
2013-9-19,83,68,55,66,60,55,99,80,50,0.00,40.00,6,2,12,0.00
2013-9-20,85,71,60,67,63,60,99,79,46,0.00,40.00,8,3,14,0.00
2013-9-21,69,65,61,68,64,61,99,97,94,0.00,40.00,6,3,15,0.05
2013-9-22,79,65,55,61,56,-100,100,79,47,0.00,40.00,7,2,12,0.58
2013-9-23,77,65,57,61,58,56,99,81,51,0.00,40.00,7,3,13,0.14
2013-9-24,70,63,56,63,60,55,99,90,75,0.00,40.00,6,2,10,0.01
2013-9-25,64,62,60,63,61,59,99,97,92,0.00,40.00,7,4,12,0.00
2013-9-26,76,65,57,64,61,57,99,87,63,0.00,40.00,6,2,11,0.00
2013-9-27,76,64,51,61,57,51,99,82,55,0.00,40.00,8,3,16,0.00
2013-9-28,73,62,53,60,56,53,99,83,58,0.00,40.00,9,3,16,0.00
2013-9-29,69,60,50,57,52,-100,98,81,55,0.00,40.00,10,3,15,0.00
2013-9-30,76,63,54,59,56,53,99,82,51,0.00,40.00,7,3,11,0.00
2013-10-1,64,62,57,61,60,56,98,94,87,0.00,40.00,3,1,4,0.00
2013-10-2,80,65,53,64,58,53,99,83,50,0.00,40.00,7,2,14,0.00
2013-10-3,81,68,58,64,60,58,99,79,49,0.00,40.00,7,2,12,0.00
2013-10-4,83,67,55,64,60,55,99,82,47,0.00,40.00,6,2,12,0.00
2013-10-5,85,68,57,65,61,57,99,81,47,0.00,40.00,6,2,11,0.00
2013-10-6,80,68,58,68,63,58,99,85,60,0.00,40.00,8,2,13,0.00
2013-10-7,77,68,62,66,62,56,99,83,49,0.00,40.00,10,3,14,0.00
2013-10-8,70,62,58,57,53,49,95,74,53,0.00,40.00,11,5,21,0.00
2013-10-9,72,60,49,54,50,44,97,73,45,0.00,40.00,7,3,14,0.00
2013-10-10,77,63,49,57,52,49,99,73,39,0.00,40.00,9,3,16,0.00
2013-10-11,80,64,50,59,54,50,99,75,36,0.00,40.00,6,2,14,0.01
2013-10-12,80,63,51,60,56,50,99,79,46,0.00,40.00,7,3,11,0.01
2013-10-13,76,63,55,63,57,-100,99,85,61,0.00,40.00,5,2,10,0.26
2013-10-14,70,64,59,63,61,59,99,91,73,0.00,40.00,7,3,13,0.43
2013-10-15,65,61,57,61,58,55,98,89,75,0.00,40.00,8,4,14,0.01
2013-10-16,71,60,52,61,56,52,99,87,60,0.00,40.00,5,1,9,0.00
2013-10-17,67,63,59,65,62,58,99,97,91,0.00,40.00,6,2,11,0.42
2013-10-18,72,59,46,58,54,46,99,86,54,0.00,40.00,6,2,12,0.01
2013-10-19,63,56,49,55,52,48,99,90,65,0.00,40.00,9,3,14,0.01
2013-10-20,68,51,39,47,41,-100,99,77,37,0.00,40.00,6,2,11,0.01
2013-10-21,67,52,39,55,48,39,99,87,59,0.00,40.00,7,2,14,0.01
2013-10-22,71,58,52,57,51,45,99,81,42,0.00,40.00,9,3,13,0.02
2013-10-23,56,51,41,50,39,30,90,65,40,0.00,40.00,18,7,30,0.01
2013-10-24,60,45,31,39,34,30,97,70,42,0.00,40.00,9,4,16,0.00
2013-10-25,57,44,32,39,29,22,92,59,26,0.00,40.00,7,4,12,0.00
2013-10-26,56,42,27,35,31,26,95,70,40,0.00,40.00,8,4,15,0.00
2013-10-27,67,52,39,52,42,-100,94,71,52,0.00,40.00,9,4,14,0.00
2013-10-28,64,56,51,57,50,-100,99,87,61,0.00,40.00,7,3,13,0.15
2013-10-29,69,56,44,54,49,44,99,83,47,0.00,40.00,6,2,10,0.01
2013-10-30,76,61,51,59,54,51,99,82,50,0.00,40.00,9,3,15,0.00
2013-10-31,70,61,54,62,57,52,99,88,65,0.00,40.00,8,2,14,0.00
2013-11-1,75,65,52,63,55,43,98,75,33,0.00,40.00,10,5,19,0.37
2013-11-2,65,54,43,47,41,33,96,65,42,0.00,40.00,13,5,23,0.01
2013-11-3,63,47,34,43,34,-100,97,67,33,0.00,40.00,6,3,12,0.00
2013-11-4,57,48,40,38,34,32,88,62,41,0.00,40.00,11,5,20,0.00
2013-11-5,60,48,39,39,33,27,79,59,33,0.00,40.00,8,4,16,0.00
2013-11-6,69,58,47,55,51,39,94,78,60,0.00,40.00,8,5,15,0.00
2013-11-7,67,56,42,60,48,28,98,75,38,0.00,40.00,13,4,21,0.06
2013-11-8,62,45,29,33,26,19,94,54,20,0.00,40.00,6,3,11,0.01
2013-11-9,56,44,30,34,27,-100,88,58,33,0.00,40.00,6,3,11,0.00
2013-11-10,72,56,41,41,30,24,73,40,20,0.00,40.00,7,4,15,0.00
2013-11-11,63,47,32,35,30,26,93,58,27,0.00,40.00,6,3,12,0.00
2013-11-12,62,45,31,37,28,11,92,55,31,0.00,40.00,10,5,22,0.00
2013-11-13,51,34,19,20,11,4,75,46,16,0.00,40.00,7,3,14,0.00
2013-11-14,59,36,20,26,17,11,90,56,15,0.00,40.00,7,3,12,0.00
2013-11-15,49,42,28,49,37,20,99,83,55,0.00,40.00,4,2,8,0.14
2013-11-16,56,52,49,54,50,-100,100,95,91,0.00,40.00,5,2,10,0.11
2013-11-17,58,57,56,58,56,53,100,95,88,0.00,40.00,5,3,9,0.93
2013-11-18,68,60,50,62,44,26,100,64,22,0.00,40.00,14,4,25,0.55
2013-11-19,58,47,35,33,29,26,76,51,33,0.00,40.00,6,4,14,0.01
2013-11-20,51,45,37,29,27,25,63,50,36,0.00,40.00,10,5,20,0.00
2013-11-21,50,47,45,50,40,28,99,80,49,0.00,40.00,7,4,17,0.15
2013-11-22,58,54,50,57,54,50,100,99,94,0.00,40.00,5,2,10,0.09
2013-11-23,57,53,41,56,45,-100,100,80,38,0.00,40.00,7,4,18,0.04
2013-11-24,47,37,27,21,14,8,61,39,22,0.00,40.00,7,4,17,0.01
2013-11-25,41,33,26,28,10,4,86,39,26,0.00,40.00,8,4,15,0.05
2013-11-26,49,42,32,49,41,28,100,98,86,0.00,40.00,7,4,16,4.13
2013-11-27,48,37,26,47,28,13,98,69,45,0.00,40.00,14,8,29,0.37
2013-11-28,49,32,19,24,18,13,91,61,26,0.00,40.00,5,3,10,0.03
2013-11-29,57,38,22,33,24,20,93,64,25,0.00,40.00,7,2,10,0.00
2013-11-30,48,38,31,27,21,-100,75,54,33,0.00,40.00,9,4,16,0.00
2013-12-1,57,43,32,38,31,25,84,65,43,0.00,40.00,7,3,11,0.00
2013-12-2,52,46,38,47,41,33,96,85,75,0.00,40.00,7,3,11,0.00
2013-12-3,51,49,47,51,49,47,100,99,96,0.00,40.00,4,2,7,0.13
2013-12-4,58,55,51,58,55,51,100,100,98,0.00,40.00,4,2,11,0.06
2013-12-5,67,62,57,67,62,57,100,99,95,0.00,40.00,8,3,18,0.65
2013-12-6,71,67,60,66,64,57,99,90,77,0.00,40.00,11,8,22,0.81
2013-12-7,62,55,47,59,50,-100,99,88,70,0.00,40.00,10,5,18,0.09
2013-12-8,49,41,37,44,40,37,99,96,80,0.00,40.00,9,6,18,0.04
2013-12-9,49,43,37,49,42,36,100,99,98,0.00,40.00,5,2,13,0.05
2013-12-10,52,44,28,49,35,22,100,74,39,0.00,40.00,17,6,30,0.08
2013-12-11,54,36,22,28,22,15,95,64,26,0.00,40.00,7,4,12,1.73
2013-12-12,51,36,28,22,16,6,71,46,16,0.00,40.00,10,4,17,0.16
2013-12-13,53,36,22,25,18,13,89,55,21,0.00,40.00,5,2,9,0.00
2013-12-14,47,43,40,47,35,-100,100,78,43,0.00,40.00,7,4,11,1.25
2013-12-15,48,40,29,48,34,26,100,78,54,0.00,40.00,15,8,21,0.01
2013-12-16,58,40,26,31,25,21,95,62,26,0.00,40.00,13,5,23,0.00
2013-12-17,61,45,29,35,29,24,90,57,28,0.00,40.00,20,7,32,0.00
2013-12-18,54,41,30,19,13,6,57,34,14,0.00,40.00,9,5,20,0.00
2013-12-19,63,41,26,32,20,14,83,51,16,0.00,40.00,7,2,12,0.00
2013-12-20,59,45,32,47,37,26,89,74,54,0.00,40.00,7,2,11,0.00
2013-12-21,62,55,51,62,52,-100,100,93,81,0.00,40.00,4,2,9,0.29
2013-12-22,66,60,56,66,60,56,100,99,95,0.00,40.00,10,3,26,2.78
2013-12-23,58,51,39,56,47,33,100,88,69,0.00,40.00,12,5,17,1.45
2013-12-24,42,35,25,33,22,14,81,62,35,0.00,40.00,10,5,21,0.02
2013-12-25,42,29,19,23,17,11,93,67,32,0.00,40.00,7,2,12,0.00
2013-12-26,57,36,22,30,22,20,91,63,24,0.00,40.00,7,2,12,0.00
2013-12-27,53,36,25,34,22,16,90,63,27,0.00,40.00,5,2,10,0.00
2013-12-28,45,34,24,38,28,-100,96,82,59,0.00,40.00,8,2,15,0.46
2013-12-29,56,46,38,49,41,33,100,84,57,0.00,40.00,14,7,20,1.43
2013-12-30,50,44,40,38,36,33,83,74,63,0.00,40.00,13,6,19,0.03
2013-12-31,49,39,31,34,25,18,78,59,30,0.00,40.00,10,4,15,0.00
2014-1-1,49,37,28,34,28,24,93,72,44,0.00,40.00,6,2,9,0.00
2014-1-2,47,39,25,46,35,10,99,84,53,0.00,40.00,15,5,30,0.24